Time;durP1;ratioP1;P1;durP2;ratioP2;P2;SDS_P1;SDS_P2;PMS_P1;PMS_P2;Temp;Humidity;BMP_temperature;BMP_pressure;BME280_temperature;BME280_humidity;BME280_pressure;Samples;Min_cycle;Max_cycle;Signal;HPM_P1;HPM_P2
2021/08/21 00:01:48;;;;;;;3.67;1.92;;;;;;;15.84;100.00;101202.03;4987392;28;20042;-68
2021/08/21 00:04:15;;;;;;;3.50;1.75;;;;;;;15.80;100.00;101202.00;4990419;28;20030;-69
2021/08/21 00:06:41;;;;;;;4.05;1.83;;;;;;;15.82;100.00;101205.13;4985382;28;20142;-68
2021/08/21 00:09:07;;;;;;;2.55;1.48;;;;;;;15.61;100.00;101207.66;4989880;28;20494;-67
2021/08/21 00:11:32;;;;;;;3.88;1.90;;;;;;;15.57;100.00;101201.44;4986941;28;20037;-68
2021/08/21 00:13:58;;;;;;;4.25;1.70;;;;;;;15.58;100.00;101207.66;4986655;28;20042;-68
2021/08/21 00:16:23;;;;;;;3.08;1.70;;;;;;;15.65;100.00;101213.91;4988830;28;20088;-68
2021/08/21 00:18:49;;;;;;;5.18;1.90;;;;;;;15.69;100.00;101213.94;4986641;28;20042;-68
2021/08/21 00:21:14;;;;;;;4.72;1.50;;;;;;;15.67;100.00;101214.31;4972115;28;20041;-68
2021/08/21 00:23:41;;;;;;;4.05;1.58;;;;;;;15.56;100.00;101216.16;4988688;28;20045;-68
2021/08/21 00:26:07;;;;;;;2.55;1.73;;;;;;;15.62;100.00;101217.38;4990417;28;20101;-68
2021/08/21 00:28:32;;;;;;;2.75;1.70;;;;;;;15.62;100.00;101216.59;4986491;28;20439;-68
2021/08/21 00:30:58;;;;;;;3.20;1.50;;;;;;;15.63;100.00;101221.66;4989405;28;20034;-69
2021/08/21 00:33:23;;;;;;;2.55;1.67;;;;;;;15.62;100.00;101219.31;4964972;28;20108;-68
2021/08/21 00:35:49;;;;;;;3.20;1.88;;;;;;;15.56;100.00;101218.09;4968114;28;20269;-68
2021/08/21 00:38:14;;;;;;;2.40;1.50;;;;;;;15.53;100.00;101221.53;4972984;28;20045;-69
2021/08/21 00:40:40;;;;;;;3.70;1.58;;;;;;;15.57;100.00;101231.28;4967586;28;20127;-67
2021/08/21 00:43:05;;;;;;;3.63;1.90;;;;;;;15.54;100.00;101225.84;4994465;28;20117;-68
2021/08/21 00:45:32;;;;;;;2.17;1.55;;;;;;;15.48;100.00;101228.13;4963168;28;20062;-67
2021/08/21 00:47:58;;;;;;;3.90;1.88;;;;;;;15.50;100.00;101227.72;4964133;28;20030;-68
2021/08/21 00:50:24;;;;;;;3.30;1.88;;;;;;;15.48;100.00;101228.13;4976416;28;20026;-67
2021/08/21 00:52:49;;;;;;;2.58;1.60;;;;;;;15.44;100.00;101223.78;4971970;28;20060;-68
2021/08/21 00:55:15;;;;;;;5.53;2.17;;;;;;;15.41;100.00;101219.84;4971321;28;20089;-67
2021/08/21 00:57:41;;;;;;;3.17;2.08;;;;;;;15.37;100.00;101227.97;4987158;28;20097;-68
2021/08/21 01:00:08;;;;;;;4.25;1.88;;;;;;;15.35;100.00;101218.63;5000213;28;20034;-67
2021/08/21 01:02:35;;;;;;;5.55;2.35;;;;;;;15.33;100.00;101224.44;4988838;28;20030;-67
2021/08/21 01:05:03;;;;;;;5.28;2.28;;;;;;;15.33;100.00;101220.94;4986665;28;20423;-67
2021/08/21 01:07:34;;;;;;;4.72;2.35;;;;;;;15.29;100.00;101226.31;4972370;28;20487;-68
2021/08/21 01:10:05;;;;;;;4.45;2.10;;;;;;;15.30;100.00;101221.69;4974299;28;20044;-67
2021/08/21 01:12:34;;;;;;;3.47;1.95;;;;;;;15.33;100.00;101220.94;4971758;28;20522;-67
2021/08/21 01:14:59;;;;;;;3.45;1.95;;;;;;;15.28;100.00;101224.78;4965454;28;20400;-67
2021/08/21 01:17:26;;;;;;;5.28;2.30;;;;;;;15.26;100.00;101220.88;4995114;28;20040;-67
2021/08/21 01:19:52;;;;;;;3.55;2.03;;;;;;;15.14;100.00;101215.69;4970793;28;20380;-67
2021/08/21 01:22:25;;;;;;;4.60;2.00;;;;;;;15.14;100.00;101224.63;4987354;28;20097;-67
2021/08/21 01:24:54;;;;;;;4.28;1.90;;;;;;;15.14;100.00;101212.97;4989235;28;20046;-67
2021/08/21 01:27:23;;;;;;;4.20;2.00;;;;;;;15.12;100.00;101220.72;4988563;28;22150;-68
2021/08/21 01:30:05;;;;;;;3.88;2.25;;;;;;;15.06;100.00;101216.78;4970354;28;20037;-67
2021/08/21 01:32:51;;;;;;;4.07;2.28;;;;;;;14.96;100.00;101207.34;4978388;28;20047;-68
2021/08/21 01:35:20;;;;;;;5.10;1.98;;;;;;;15.05;100.00;101215.22;4955595;28;20443;-67
2021/08/21 01:37:46;;;;;;;4.22;1.77;;;;;;;15.06;100.00;101214.06;4977673;28;20038;-67
2021/08/21 01:40:32;;;;;;;4.25;2.17;;;;;;;15.00;100.00;101215.56;4970375;28;20030;-67
2021/08/21 01:43:01;;;;;;;3.47;1.80;;;;;;;14.99;100.00;101212.06;4986528;28;20541;-68
2021/08/21 01:45:29;;;;;;;4.80;2.30;;;;;;;14.87;100.00;101208.78;4974297;28;20129;-67
2021/08/21 01:47:55;;;;;;;4.03;2.22;;;;;;;14.94;100.00;101219.75;4979080;28;20121;-68
2021/08/21 01:50:21;;;;;;;7.72;2.35;;;;;;;14.89;100.00;101220.06;4952569;28;20038;-67
2021/08/21 01:52:50;;;;;;;4.53;2.88;;;;;;;14.76;100.00;101218.75;4970907;28;20085;-67
2021/08/21 01:55:30;;;;;;;5.13;2.22;;;;;;;14.70;100.00;101215.56;4970520;28;20035;-68
2021/08/21 01:57:58;;;;;;;2.88;1.83;;;;;;;14.78;100.00;101219.16;4966409;28;20093;-67
2021/08/21 02:00:38;;;;;;;3.05;1.85;;;;;;;14.73;100.00;101222.19;4971192;28;20117;-67
2021/08/21 02:03:05;;;;;;;3.63;1.70;;;;;;;14.68;100.00;101212.44;4968899;28;20562;-68
2021/08/21 02:05:35;;;;;;;2.30;1.50;;;;;;;14.74;100.00;101213.69;4987120;28;20093;-67
2021/08/21 02:08:02;;;;;;;3.42;1.63;;;;;;;14.79;100.00;101215.31;4992349;28;20042;-67
2021/08/21 02:10:28;;;;;;;2.67;1.60;;;;;;;14.70;100.00;101226.41;4956266;28;20030;-67
2021/08/21 02:12:53;;;;;;;3.47;1.80;;;;;;;14.66;100.00;101219.38;4984307;28;20026;-67
2021/08/21 02:15:23;;;;;;;4.55;1.95;;;;;;;14.65;100.00;101218.63;4988164;28;20026;-67
2021/08/21 02:17:52;;;;;;;2.92;1.65;;;;;;;14.54;100.00;101216.91;5019212;22;20171;-67
2021/08/21 02:20:43;;;;;;;3.30;1.65;;;;;;;14.44;100.00;101213.69;4993782;28;20129;-68
2021/08/21 02:23:16;;;;;;;3.38;1.33;;;;;;;14.55;100.00;101204.91;5012584;28;20552;-67
2021/08/21 02:25:42;;;;;;;1.95;1.42;;;;;;;14.52;100.00;101211.84;5015287;28;20029;-68
2021/08/21 02:28:10;;;;;;;3.10;1.42;;;;;;;14.35;100.00;101213.19;5012854;28;20033;-68
2021/08/21 02:30:39;;;;;;;1.95;1.27;;;;;;;14.29;100.00;101216.56;5004692;28;20030;-74
2021/08/21 02:33:05;;;;;;;2.22;1.63;;;;;;;14.22;100.00;101216.44;4985790;28;20034;-73
2021/08/21 02:35:32;;;;;;;3.35;1.50;;;;;;;14.21;100.00;101204.81;4989779;28;20613;-67
2021/08/21 02:37:58;;;;;;;3.05;1.63;;;;;;;14.18;100.00;101207.47;5007542;28;20121;-67
2021/08/21 02:40:24;;;;;;;3.40;1.40;;;;;;;14.22;100.00;101200.97;4998732;28;20034;-67
2021/08/21 02:42:50;;;;;;;2.97;1.48;;;;;;;14.18;100.00;101204.75;4992649;28;20030;-68
2021/08/21 02:45:16;;;;;;;3.95;1.45;;;;;;;14.20;100.00;101200.56;4991187;28;20108;-68
2021/08/21 02:47:42;;;;;;;1.95;1.35;;;;;;;14.18;100.00;101202.84;4990310;28;20062;-70
2021/08/21 02:50:08;;;;;;;4.78;1.60;;;;;;;14.12;100.00;101200.81;5008129;28;20564;-70
2021/08/21 02:52:33;;;;;;;2.90;1.63;;;;;;;14.20;100.00;101203.25;4990509;28;20034;-67
2021/08/21 02:54:59;;;;;;;3.65;1.70;;;;;;;14.27;100.00;101208.81;4993943;28;20428;-67
2021/08/21 02:57:26;;;;;;;4.05;1.95;;;;;;;14.31;100.00;101206.91;5006295;28;20029;-72
2021/08/21 02:59:54;;;;;;;3.47;1.77;;;;;;;14.18;100.00;101213.69;4991560;28;20073;-67
2021/08/21 03:02:21;;;;;;;2.83;1.75;;;;;;;14.05;100.00;101215.00;5002555;28;20037;-67
2021/08/21 03:04:49;;;;;;;3.47;1.45;;;;;;;14.13;100.00;101208.56;5007921;28;20705;-71
2021/08/21 03:07:20;;;;;;;3.92;2.10;;;;;;;14.22;100.00;101221.84;4991364;28;20510;-70
2021/08/21 03:09:50;;;;;;;2.90;1.65;;;;;;;14.23;100.00;101217.97;4990968;28;20034;-67
2021/08/21 03:12:17;;;;;;;2.13;1.33;;;;;;;14.29;100.00;101220.06;5006435;28;20037;-68
2021/08/21 03:14:56;;;;;;;2.83;1.45;;;;;;;14.29;100.00;101211.13;4976597;28;20050;-67
2021/08/21 03:17:23;;;;;;;3.15;1.60;;;;;;;14.18;100.00;101216.38;4991514;28;20402;-68
2021/08/21 03:19:49;;;;;;;2.83;1.50;;;;;;;14.18;100.00;101221.81;4997854;28;20026;-73
2021/08/21 03:22:14;;;;;;;2.65;1.40;;;;;;;14.17;100.00;101220.22;4994292;28;20187;-68
2021/08/21 03:24:42;;;;;;;2.80;1.50;;;;;;;14.18;100.00;101224.50;5009962;28;20030;-68
2021/08/21 03:27:09;;;;;;;2.67;1.33;;;;;;;14.13;100.00;101234.88;4988205;28;20038;-68
2021/08/21 03:29:35;;;;;;;4.22;1.70;;;;;;;14.08;100.00;101229.75;4989143;28;20035;-68
2021/08/21 03:32:03;;;;;;;6.40;1.65;;;;;;;14.08;100.00;101233.25;5004609;28;20042;-67
2021/08/21 03:34:29;;;;;;;2.22;1.40;;;;;;;14.08;100.00;101238.66;4992690;28;20119;-68
2021/08/21 03:36:57;;;;;;;2.75;1.42;;;;;;;14.09;100.00;101244.88;4986572;28;20026;-67
2021/08/21 03:39:22;;;;;;;2.25;1.50;;;;;;;14.07;100.00;101244.47;4998003;28;20387;-68
2021/08/21 03:41:48;;;;;;;5.30;1.85;;;;;;;14.02;100.00;101250.16;4989070;28;20039;-68
2021/08/21 03:44:16;;;;;;;2.38;1.40;;;;;;;13.92;100.00;101248.06;4988996;28;20034;-71
2021/08/21 03:46:42;;;;;;;2.80;1.67;;;;;;;13.84;100.00;101258.00;4985244;28;20117;-68
2021/08/21 03:49:09;;;;;;;1.92;1.35;;;;;;;13.88;100.00;101258.84;5005764;28;20026;-68
2021/08/21 03:51:35;;;;;;;3.40;1.63;;;;;;;13.88;100.00;101252.66;4989935;28;20022;-67
2021/08/21 03:54:01;;;;;;;3.15;1.58;;;;;;;13.96;100.00;101254.31;4991094;28;20380;-68
2021/08/21 03:56:27;;;;;;;3.35;1.50;;;;;;;14.03;100.00;101257.16;4996507;28;20034;-68
2021/08/21 03:58:56;;;;;;;3.55;1.67;;;;;;;14.00;100.00;101258.66;5008324;28;20049;-71
2021/08/21 04:01:22;;;;;;;3.08;1.60;;;;;;;14.10;100.00;101268.88;4991470;28;20034;-68
2021/08/21 04:03:55;;;;;;;4.57;2.30;;;;;;;14.07;100.00;101264.19;5008564;28;20057;-71
2021/08/21 04:06:26;;;;;;;3.28;1.63;;;;;;;14.07;100.00;101263.41;4989343;28;20034;-68
2021/08/21 04:08:51;;;;;;;3.65;1.85;;;;;;;14.11;100.00;101269.69;4985327;28;20045;-68
2021/08/21 04:11:27;;;;;;;4.03;2.10;;;;;;;14.10;100.00;101259.97;4999472;28;20089;-68
2021/08/21 04:14:15;;;;;;;5.38;1.77;;;;;;;14.20;100.00;101271.00;4988560;28;20051;-68
2021/08/21 04:16:42;;;;;;;2.35;1.58;;;;;;;14.23;100.00;101269.47;5004146;28;20058;-68
2021/08/21 04:19:08;;;;;;;6.88;2.00;;;;;;;14.31;100.00;101268.47;4979604;28;20080;-68
2021/08/21 04:21:39;;;;;;;5.43;2.17;;;;;;;14.38;100.00;101271.28;4985424;28;20027;-67
2021/08/21 04:24:08;;;;;;;4.28;1.90;;;;;;;14.42;100.00;101275.59;5008599;28;20027;-68
2021/08/21 04:26:36;;;;;;;3.55;1.90;;;;;;;14.47;100.00;101263.66;4981277;28;20034;-67
2021/08/21 04:29:02;;;;;;;4.57;1.90;;;;;;;14.51;100.00;101271.84;4982149;28;20041;-69
2021/08/21 04:31:27;;;;;;;5.15;1.77;;;;;;;14.50;100.00;101267.59;4989637;28;20026;-68
2021/08/21 04:33:54;;;;;;;4.72;2.05;;;;;;;14.52;100.00;101274.19;4988652;28;20030;-70
2021/08/21 04:36:20;;;;;;;4.63;2.53;;;;;;;14.53;100.00;101274.97;4993189;28;20065;-68
2021/08/21 04:38:45;;;;;;;4.03;1.98;;;;;;;14.56;100.00;101269.59;4988956;28;20088;-68
2021/08/21 04:41:11;;;;;;;4.60;2.33;;;;;;;14.60;100.00;101269.63;4994382;28;20045;-68
2021/08/21 04:43:37;;;;;;;4.75;2.08;;;;;;;14.63;100.00;101263.50;4991621;28;20493;-73
2021/08/21 04:46:05;;;;;;;4.70;2.20;;;;;;;14.63;100.00;101268.94;5010672;28;20521;-70
2021/08/21 04:48:31;;;;;;;3.75;1.80;;;;;;;14.64;100.00;101259.63;4988358;28;20029;-72
2021/08/21 04:50:57;;;;;;;3.03;1.85;;;;;;;14.62;100.00;101270.06;5002650;28;20031;-69
2021/08/21 04:53:23;;;;;;;3.85;2.10;;;;;;;14.56;100.00;101268.81;5005413;28;20038;-68
2021/08/21 04:55:49;;;;;;;4.68;2.15;;;;;;;14.54;100.00;101265.72;4988969;28;20594;-69
2021/08/21 04:58:16;;;;;;;5.28;1.88;;;;;;;14.62;100.00;101256.50;4987661;28;20028;-68
2021/08/21 05:00:43;;;;;;;3.80;1.80;;;;;;;14.64;100.00;101257.72;4983985;28;20025;-68
2021/08/21 05:03:17;;;;;;;4.82;1.85;;;;;;;14.63;100.00;101269.72;4994323;28;20030;-67
2021/08/21 05:05:44;;;;;;;4.38;1.92;;;;;;;14.48;100.00;101259.03;4994721;28;20030;-67
2021/08/21 05:08:10;;;;;;;5.57;1.83;;;;;;;14.53;100.00;101262.22;4989755;28;20050;-68
2021/08/21 05:10:38;;;;;;;3.53;1.85;;;;;;;14.53;100.00;101258.72;4989975;28;20026;-69
2021/08/21 05:13:03;;;;;;;3.40;1.95;;;;;;;14.53;100.00;101269.56;4996418;28;20040;-69
2021/08/21 05:15:33;;;;;;;3.70;1.80;;;;;;;14.53;100.00;101269.56;5000284;28;20117;-70
2021/08/21 05:18:26;;;;;;;3.63;2.10;;;;;;;14.61;100.00;101276.66;4991922;28;20042;-68
2021/08/21 05:21:04;;;;;;;3.42;1.98;;;;;;;14.66;100.00;101282.53;5001067;28;20039;-69
2021/08/21 05:23:30;;;;;;;4.85;2.22;;;;;;;14.72;100.00;101277.56;4996524;28;20031;-69
2021/08/21 05:25:55;;;;;;;3.95;2.13;;;;;;;14.62;100.00;101289.81;4983765;28;20729;-68
2021/08/21 05:28:21;;;;;;;3.78;1.98;;;;;;;14.72;100.00;101297.34;5020058;28;20030;-68
2021/08/21 05:30:47;;;;;;;3.22;1.88;;;;;;;14.78;100.00;101303.22;5010739;28;20026;-68
2021/08/21 05:33:15;;;;;;;3.30;1.80;;;;;;;14.67;100.00;101294.16;4994663;28;20018;-68
2021/08/21 05:35:41;;;;;;;5.95;2.35;;;;;;;14.79;100.00;101304.78;4992797;28;20034;-68
2021/08/21 05:38:08;;;;;;;7.47;2.40;;;;;;;14.76;100.00;101303.59;4995847;28;20030;-70
2021/08/21 05:40:34;;;;;;;4.25;1.90;;;;;;;14.86;100.00;101286.69;4990556;28;20423;-69
2021/08/21 05:43:00;;;;;;;4.35;1.80;;;;;;;14.99;100.00;101295.34;4997808;28;20030;-69
2021/08/21 05:45:26;;;;;;;4.88;1.65;;;;;;;15.04;100.00;101298.53;4990453;28;20049;-68
2021/08/21 05:47:52;;;;;;;4.03;1.90;;;;;;;15.12;100.00;101300.19;4996510;28;20042;-68
2021/08/21 05:50:18;;;;;;;5.35;2.00;;;;;;;15.15;100.00;101307.59;4992181;28;20045;-68
2021/08/21 05:52:45;;;;;;;6.97;2.40;;;;;;;15.21;100.00;101308.06;4995986;28;20033;-67
2021/08/21 05:55:11;;;;;;;4.25;2.30;;;;;;;15.26;100.00;101313.13;5002630;28;20049;-68
2021/08/21 05:57:56;;;;;;;4.50;2.25;;;;;;;15.35;100.00;101311.69;5011506;28;20456;-68
2021/08/21 06:00:24;;;;;;;4.43;2.13;;;;;;;15.45;100.00;101302.13;5009473;28;20033;-68
2021/08/21 06:02:49;;;;;;;3.17;1.80;;;;;;;15.63;100.00;101305.03;4998569;28;20033;-67
2021/08/21 06:05:15;;;;;;;3.45;2.13;;;;;;;15.72;100.00;101308.22;5010122;28;20042;-69
2021/08/21 06:07:42;;;;;;;3.63;1.98;;;;;;;15.95;100.00;101304.19;4995369;28;20113;-68
2021/08/21 06:10:19;;;;;;;3.55;1.77;;;;;;;16.12;100.00;101305.53;5010519;28;20034;-68
2021/08/21 06:12:47;;;;;;;3.35;1.77;;;;;;;16.30;100.00;101300.22;4991082;28;20128;-68
2021/08/21 06:15:14;;;;;;;2.72;1.55;;;;;;;16.35;100.00;101302.56;5005305;28;20034;-71
2021/08/21 06:17:39;;;;;;;2.10;1.40;;;;;;;16.50;100.00;101305.06;4990167;28;20039;-67
2021/08/21 06:20:05;;;;;;;3.92;1.38;;;;;;;16.66;100.00;101312.94;5005451;28;20045;-68
2021/08/21 06:22:31;;;;;;;2.25;1.33;;;;;;;16.81;100.00;101309.91;4990131;28;20034;-67
2021/08/21 06:24:56;;;;;;;1.35;1.00;;;;;;;16.85;100.00;101308.00;4995496;28;20072;-68
2021/08/21 06:27:22;;;;;;;2.28;1.20;;;;;;;16.98;100.00;101314.66;4992838;28;20085;-68
2021/08/21 06:29:47;;;;;;;1.17;1.00;;;;;;;16.98;100.00;101308.44;4993915;28;20041;-69
2021/08/21 06:32:13;;;;;;;1.30;1.05;;;;;;;17.05;100.00;101308.47;5001498;28;20045;-69
2021/08/21 06:34:38;;;;;;;0.95;0.88;;;;;;;17.14;100.00;101317.06;4999525;28;20038;-67
2021/08/21 06:37:08;;;;;;;1.10;1.00;;;;;;;17.25;100.00;101306.22;5000891;28;20040;-67
2021/08/21 06:39:34;;;;;;;1.60;1.00;;;;;;;17.36;100.00;101324.16;4993175;28;20544;-71
2021/08/21 06:42:00;;;;;;;1.00;0.90;;;;;;;17.34;100.00;101321.03;4980408;28;20034;-70
2021/08/21 06:44:26;;;;;;;2.33;1.00;;;;;;;17.38;100.00;101324.53;4990876;28;20030;-68
2021/08/21 06:46:52;;;;;;;1.15;1.02;;;;;;;17.50;100.00;101326.94;4987481;28;20593;-69
2021/08/21 06:49:17;;;;;;;1.45;1.10;;;;;;;17.55;100.00;101326.59;4991806;28;20495;-68
2021/08/21 06:51:43;;;;;;;1.10;0.93;;;;;;;17.57;100.00;101328.91;4989005;28;20564;-68
2021/08/21 06:54:09;;;;;;;1.38;1.00;;;;;;;17.52;100.00;101316.44;4998302;28;20041;-68
2021/08/21 06:56:34;;;;;;;1.98;1.05;;;;;;;17.58;100.00;101322.28;4993437;28;20380;-68
2021/08/21 06:59:00;;;;;;;1.48;1.00;;;;;;;17.67;100.00;101333.63;4992097;28;20117;-69
2021/08/21 07:01:27;;;;;;;1.30;0.85;;;;;;;17.72;100.00;101336.75;4992808;28;20042;-70
2021/08/21 07:03:52;;;;;;;1.35;0.80;;;;;;;17.72;100.00;101334.03;4993791;28;20040;-68
2021/08/21 07:06:18;;;;;;;0.93;0.80;;;;;;;17.85;100.00;101337.13;4990637;28;20030;-69
2021/08/21 07:08:43;;;;;;;1.80;0.93;;;;;;;17.85;100.00;101331.69;4980611;28;20022;-68
2021/08/21 07:11:09;;;;;;;1.27;0.95;;;;;;;17.95;100.00;101334.44;4982645;28;20018;-68
2021/08/21 07:13:34;;;;;;;2.38;1.13;;;;;;;18.00;100.00;101342.22;5002119;28;20212;-71
2021/08/21 07:16:00;;;;;;;1.35;1.02;;;;;;;17.98;100.00;101339.09;4997473;28;20030;-68
2021/08/21 07:18:25;;;;;;;1.15;0.70;;;;;;;17.99;100.00;101339.91;4990532;28;20113;-68
2021/08/21 07:20:51;;;;;;;0.85;0.73;;;;;;;18.16;100.00;101339.13;4991848;28;20049;-70
2021/08/21 07:23:16;;;;;;;0.85;0.82;;;;;;;18.15;100.00;101339.53;4994598;28;20034;-69
2021/08/21 07:25:43;;;;;;;1.00;0.77;;;;;;;18.23;100.00;101349.28;5015364;28;20042;-68
2021/08/21 07:28:09;;;;;;;1.65;0.90;;;;;;;18.30;100.00;101350.03;5001185;28;20565;-70
2021/08/21 07:30:35;;;;;;;1.00;0.90;;;;;;;18.32;100.00;101352.38;4994563;28;20476;-69
2021/08/21 07:33:00;;;;;;;0.82;0.70;;;;;;;18.34;100.00;101348.09;5006623;28;20045;-70
2021/08/21 07:35:26;;;;;;;2.03;1.00;;;;;;;18.31;100.00;101345.38;5010144;28;20041;-69
2021/08/21 07:37:51;;;;;;;1.02;0.80;;;;;;;18.40;100.00;101343.03;4995136;28;20038;-69
2021/08/21 07:40:17;;;;;;;1.38;0.98;;;;;;;18.51;100.00;101352.00;4997717;28;20037;-70
2021/08/21 07:42:42;;;;;;;0.80;0.80;;;;;;;18.66;100.00;101356.31;5000830;28;20039;-67
2021/08/21 07:45:08;;;;;;;2.45;0.70;;;;;;;18.78;100.00;101361.34;5001879;28;20037;-69
2021/08/21 07:47:36;;;;;;;0.70;0.60;;;;;;;18.80;99.52;101357.03;4988869;28;20066;-68
2021/08/21 07:50:02;;;;;;;1.98;0.73;;;;;;;18.79;98.49;101362.91;4995027;28;20069;-68
2021/08/21 07:52:27;;;;;;;2.55;0.82;;;;;;;18.83;98.58;101355.50;4999900;28;20061;-68
2021/08/21 07:54:53;;;;;;;0.98;0.77;;;;;;;18.85;98.17;101362.09;4992736;28;20480;-68
2021/08/21 07:57:19;;;;;;;1.27;0.77;;;;;;;18.99;98.01;101357.78;4998246;28;20050;-68
2021/08/21 07:59:44;;;;;;;1.05;0.82;;;;;;;19.05;97.04;101356.22;4994146;28;20054;-69
2021/08/21 08:02:10;;;;;;;0.70;0.70;;;;;;;19.11;96.60;101366.31;4996362;28;20129;-68
2021/08/21 08:04:36;;;;;;;0.82;0.70;;;;;;;19.16;97.15;101357.75;5008620;28;20112;-68
2021/08/21 08:07:01;;;;;;;0.65;0.65;;;;;;;19.25;97.38;101354.56;4999386;28;20038;-69
2021/08/21 08:09:28;;;;;;;2.60;0.68;;;;;;;19.27;98.19;101358.47;5001281;28;20038;-71
2021/08/21 08:11:54;;;;;;;1.40;0.68;;;;;;;19.36;96.58;101360.78;5000208;28;20033;-72
2021/08/21 08:14:20;;;;;;;1.15;0.70;;;;;;;19.36;97.22;101367.03;4995245;28;20045;-71
2021/08/21 08:19:13;;;;;;;2.53;0.68;;;;;;;19.41;95.11;101363.91;5019869;28;20513;-66
2021/08/21 08:21:39;;;;;;;2.97;0.75;;;;;;;19.47;95.03;101356.09;5018433;28;20082;-68
2021/08/21 08:24:05;;;;;;;1.83;0.75;;;;;;;19.60;94.39;101366.16;5012489;28;20809;-67
2021/08/21 08:26:30;;;;;;;0.70;0.70;;;;;;;19.65;94.17;101356.75;5016324;28;20038;-67
2021/08/21 08:28:56;;;;;;;1.17;0.80;;;;;;;19.66;94.33;101359.09;4991786;28;20037;-67
2021/08/21 08:31:21;;;;;;;1.10;0.77;;;;;;;19.71;93.42;101366.88;5004859;28;20049;-66
2021/08/21 08:33:47;;;;;;;2.45;0.65;;;;;;;19.71;92.13;101350.47;5001415;28;20509;-66
2021/08/21 08:36:12;;;;;;;1.52;0.60;;;;;;;19.66;91.51;101364.56;5005884;28;20167;-66
2021/08/21 08:38:38;;;;;;;0.80;0.65;;;;;;;19.74;91.77;101357.09;4987465;28;20521;-65
2021/08/21 08:41:08;;;;;;;0.95;0.70;;;;;;;19.74;90.73;101366.06;5006679;28;20157;-67
2021/08/21 08:43:35;;;;;;;;;;;;;;;19.59;89.63;101367.31;5008808;28;20046;-67
2021/08/21 08:46:00;;;;;;;0.60;0.55;;;;;;;19.78;89.60;101371.53;5006626;28;19975;-67
2021/08/21 08:48:27;;;;;;;1.67;0.55;;;;;;;19.97;89.49;101364.78;5010098;28;20044;-66
2021/08/21 08:50:54;;;;;;;0.50;0.50;;;;;;;20.11;90.01;101367.41;4994358;28;20057;-66
2021/08/21 08:53:19;;;;;;;1.45;0.95;;;;;;;20.22;89.29;101368.13;5005669;28;20034;-67
2021/08/21 08:55:46;;;;;;;0.93;0.55;;;;;;;20.27;88.24;101373.16;5002098;28;20041;-66
2021/08/21 08:58:12;;;;;;;1.33;0.63;;;;;;;20.35;87.51;101377.41;5005065;28;20021;-66
2021/08/21 09:00:38;;;;;;;0.77;0.77;;;;;;;20.37;86.83;101364.88;5000784;28;20092;-67
2021/08/21 09:03:04;;;;;;;1.20;0.82;;;;;;;20.47;87.81;101374.97;5008029;28;20030;-67
2021/08/21 09:05:40;;;;;;;0.80;0.50;;;;;;;20.63;87.01;101379.94;5005440;28;20108;-66
2021/08/21 09:08:05;;;;;;;0.80;0.50;;;;;;;20.63;84.59;101372.47;5003606;28;20558;-67
2021/08/21 09:10:33;;;;;;;1.35;0.50;;;;;;;20.65;84.75;101377.56;5006235;28;20045;-66
2021/08/21 09:13:12;;;;;;;1.15;0.60;;;;;;;20.72;84.94;101376.69;5004990;28;20038;-67
2021/08/21 09:15:41;;;;;;;1.73;0.70;;;;;;;20.77;83.21;101368.81;5000865;28;20049;-67
2021/08/21 09:18:14;;;;;;;0.40;0.40;;;;;;;20.87;82.45;101375.38;4998420;28;20026;-66
2021/08/21 09:20:48;;;;;;;0.40;0.40;;;;;;;20.94;82.36;101378.84;5005033;28;20026;-67
2021/08/21 09:23:36;;;;;;;0.73;0.60;;;;;;;20.97;83.28;101380.75;5001741;28;20117;-66
2021/08/21 09:26:10;;;;;;;1.13;0.45;;;;;;;21.15;83.71;101375.09;5010500;28;20095;-66
2021/08/21 09:28:38;;;;;;;0.50;0.45;;;;;;;21.24;83.28;101369.91;5008320;28;20030;-67
2021/08/21 09:31:18;;;;;;;0.40;0.40;;;;;;;21.35;82.36;101368.59;5009403;28;20168;-67
2021/08/21 09:33:54;;;;;;;0.40;0.40;;;;;;;21.28;78.87;101378.88;5013567;28;20030;-67
2021/08/21 09:36:30;;;;;;;0.40;0.40;;;;;;;21.38;79.57;101370.53;4995772;28;20045;-67
2021/08/21 09:38:56;;;;;;;0.70;0.50;;;;;;;21.29;77.24;101369.47;5010104;28;20041;-65
2021/08/21 09:41:22;;;;;;;1.00;0.50;;;;;;;21.27;79.33;101372.59;5007576;28;20042;-67
2021/08/21 09:43:48;;;;;;;1.27;0.43;;;;;;;21.25;76.80;101377.72;5008882;28;20128;-66
2021/08/21 09:46:17;;;;;;;0.63;0.43;;;;;;;21.32;75.52;101377.66;5009409;28;20109;-66
2021/08/21 09:48:57;;;;;;;0.50;0.40;;;;;;;21.41;75.01;101374.38;5005769;28;20317;-66
2021/08/21 09:51:45;;;;;;;0.50;0.30;;;;;;;21.62;73.79;101378.84;5001704;28;20030;-65
2021/08/21 09:54:15;;;;;;;3.95;0.95;;;;;;;21.85;75.34;101371.50;5005956;28;20053;-67
2021/08/21 09:56:43;;;;;;;2.13;0.60;;;;;;;21.99;75.24;101370.50;5005613;28;20517;-66
2021/08/21 09:59:09;;;;;;;0.55;0.50;;;;;;;21.99;73.97;101376.00;5009844;28;20104;-68
2021/08/21 10:01:35;;;;;;;0.50;0.50;;;;;;;21.97;72.66;101364.66;5008730;28;20034;-67
2021/08/21 10:04:02;;;;;;;0.57;0.43;;;;;;;21.85;70.72;101374.25;5009689;28;20034;-67
2021/08/21 10:06:28;;;;;;;0.38;0.38;;;;;;;21.96;71.59;101368.59;5018553;28;20091;-66
2021/08/21 10:09:08;;;;;;;0.98;0.40;;;;;;;21.93;69.32;101366.69;5019471;28;20041;-67
2021/08/21 10:11:34;;;;;;;0.73;0.20;;;;;;;22.00;71.70;101363.81;5003867;28;20048;-68
2021/08/21 10:14:00;;;;;;;0.52;0.40;;;;;;;22.26;72.63;101357.53;4992936;28;20033;-65
2021/08/21 10:16:26;;;;;;;0.60;0.60;;;;;;;22.51;72.94;101368.88;5010404;28;20017;-67
2021/08/21 10:18:52;;;;;;;2.70;0.40;;;;;;;22.42;70.73;101358.44;5012543;28;20112;-68
2021/08/21 10:21:18;;;;;;;0.40;0.40;;;;;;;22.53;68.43;101363.72;5003332;28;20125;-68
2021/08/21 10:23:46;;;;;;;0.47;0.47;;;;;;;22.67;70.03;101366.25;5007339;28;20109;-68
2021/08/21 10:26:24;;;;;;;0.32;0.25;;;;;;;22.63;68.67;101368.28;5009990;28;20117;-67
2021/08/21 10:28:51;;;;;;;0.70;0.60;;;;;;;22.63;68.01;101362.03;4994409;28;20100;-67
2021/08/21 10:31:41;;;;;;;1.10;0.40;;;;;;;22.38;66.76;101356.94;5011137;28;20025;-68
2021/08/21 10:34:09;;;;;;;1.17;0.50;;;;;;;22.30;69.04;101358.22;4989202;28;20037;-67
2021/08/21 10:36:50;;;;;;;2.47;0.40;;;;;;;22.31;68.37;101351.56;5008095;28;20045;-66
2021/08/21 10:39:20;;;;;;;0.47;0.30;;;;;;;22.27;69.43;101359.88;5009173;28;20034;-66
2021/08/21 10:41:47;;;;;;;0.88;0.50;;;;;;;22.29;69.21;101356.69;5009366;28;20042;-66
2021/08/21 10:44:38;;;;;;;0.43;0.43;;;;;;;22.13;66.54;101365.56;5006382;28;20061;-67
2021/08/21 10:47:04;;;;;;;0.90;0.50;;;;;;;22.15;69.89;101360.44;5004078;28;20048;-67
2021/08/21 10:49:43;;;;;;;0.40;0.35;;;;;;;22.17;70.86;101366.28;5001277;28;20034;-66
2021/08/21 10:52:44;;;;;;;0.50;0.50;;;;;;;22.47;69.86;101354.44;5004694;28;20446;-67
2021/08/21 10:55:20;;;;;;;0.57;0.50;;;;;;;22.88;70.87;101363.13;4979141;28;20592;-67
2021/08/21 10:57:58;;;;;;;0.73;0.45;;;;;;;23.02;65.84;101362.06;5011263;28;20040;-66
2021/08/21 11:00:38;;;;;;;0.65;0.60;;;;;;;23.35;63.55;101366.53;5012599;28;20842;-68
2021/08/21 11:03:11;;;;;;;0.47;0.38;;;;;;;23.56;64.73;101363.34;5003213;28;20125;-65
2021/08/21 11:05:55;;;;;;;0.40;0.30;;;;;;;23.82;63.04;101369.84;5011496;28;20550;-68
2021/08/21 11:08:27;;;;;;;0.68;0.30;;;;;;;24.02;63.39;101359.59;5005042;28;20029;-67
2021/08/21 11:11:08;;;;;;;0.25;0.25;;;;;;;24.22;62.42;101357.53;5010540;28;20026;-67
2021/08/21 11:13:49;;;;;;;0.40;0.40;;;;;;;24.30;63.14;101367.16;5007159;28;20109;-67
2021/08/21 11:16:15;;;;;;;2.25;0.50;;;;;;;24.35;60.37;101363.13;5003520;28;20033;-66
2021/08/21 11:18:51;;;;;;;0.45;0.40;;;;;;;24.06;60.46;101366.56;5002238;28;20038;-66
2021/08/21 11:21:37;;;;;;;0.40;0.40;;;;;;;23.99;61.75;101357.66;5011783;28;20483;-66
2021/08/21 11:24:22;;;;;;;0.40;0.32;;;;;;;23.79;58.16;101356.97;5009219;28;20049;-66
2021/08/21 11:26:48;;;;;;;0.63;0.50;;;;;;;23.77;62.32;101351.88;5008993;28;20046;-64
2021/08/21 11:29:15;;;;;;;0.57;0.40;;;;;;;23.99;62.66;101352.16;4996334;28;20088;-66